sensor_id;sensor_type;location;lat;lon;timestamp;P1;durP1;ratioP1;P2;durP2;ratioP2
52854;SDS011;38719;51.418;7.286;2023-03-08T00:01:26;23.55;;;11.65;;
52854;SDS011;38719;51.418;7.286;2023-03-08T00:03:55;27.15;;;11.50;;
52854;SDS011;38719;51.418;7.286;2023-03-08T00:06:25;21.20;;;10.50;;
52854;SDS011;38719;51.418;7.286;2023-03-08T00:08:53;18.33;;;11.25;;
52854;SDS011;38719;51.418;7.286;2023-03-08T00:11:22;18.30;;;10.82;;
52854;SDS011;38719;51.418;7.286;2023-03-08T00:13:51;20.52;;;11.68;;
52854;SDS011;38719;51.418;7.286;2023-03-08T00:16:18;30.08;;;12.93;;
52854;SDS011;38719;51.418;7.286;2023-03-08T00:18:46;20.27;;;11.02;;
52854;SDS011;38719;51.418;7.286;2023-03-08T00:21:14;19.95;;;10.43;;
52854;SDS011;38719;51.418;7.286;2023-03-08T00:23:45;17.40;;;10.38;;
52854;SDS011;38719;51.418;7.286;2023-03-08T00:26:13;17.10;;;11.10;;
52854;SDS011;38719;51.418;7.286;2023-03-08T00:28:40;20.17;;;10.63;;
52854;SDS011;38719;51.418;7.286;2023-03-08T00:31:09;22.80;;;11.77;;
52854;SDS011;38719;51.418;7.286;2023-03-08T00:33:38;18.38;;;11.00;;
52854;SDS011;38719;51.418;7.286;2023-03-08T00:36:06;17.88;;;11.30;;
52854;SDS011;38719;51.418;7.286;2023-03-08T00:38:36;22.42;;;12.00;;
52854;SDS011;38719;51.418;7.286;2023-03-08T00:41:05;21.42;;;11.10;;
52854;SDS011;38719;51.418;7.286;2023-03-08T00:43:33;20.73;;;11.18;;
52854;SDS011;38719;51.418;7.286;2023-03-08T00:46:01;19.17;;;10.82;;
52854;SDS011;38719;51.418;7.286;2023-03-08T00:48:31;21.05;;;11.93;;
52854;SDS011;38719;51.418;7.286;2023-03-08T00:50:59;25.85;;;11.30;;
52854;SDS011;38719;51.418;7.286;2023-03-08T00:53:26;22.70;;;11.82;;
52854;SDS011;38719;51.418;7.286;2023-03-08T00:55:54;18.05;;;11.90;;
52854;SDS011;38719;51.418;7.286;2023-03-08T00:58:25;18.45;;;10.93;;
52854;SDS011;38719;51.418;7.286;2023-03-08T01:00:54;18.77;;;11.80;;
52854;SDS011;38719;51.418;7.286;2023-03-08T01:03:22;19.70;;;11.90;;
52854;SDS011;38719;51.418;7.286;2023-03-08T01:05:51;21.70;;;11.90;;
52854;SDS011;38719;51.418;7.286;2023-03-08T01:08:21;19.05;;;11.05;;
52854;SDS011;38719;51.418;7.286;2023-03-08T01:10:50;22.50;;;12.00;;
52854;SDS011;38719;51.418;7.286;2023-03-08T01:13:22;21.48;;;11.57;;
52854;SDS011;38719;51.418;7.286;2023-03-08T01:15:51;19.90;;;12.10;;
52854;SDS011;38719;51.418;7.286;2023-03-08T01:18:19;18.60;;;12.02;;
52854;SDS011;38719;51.418;7.286;2023-03-08T01:20:53;19.73;;;12.25;;
52854;SDS011;38719;51.418;7.286;2023-03-08T01:23:21;21.83;;;12.00;;
52854;SDS011;38719;51.418;7.286;2023-03-08T01:25:56;22.38;;;12.65;;
52854;SDS011;38719;51.418;7.286;2023-03-08T01:28:24;19.75;;;12.13;;
52854;SDS011;38719;51.418;7.286;2023-03-08T01:30:53;22.30;;;12.07;;
52854;SDS011;38719;51.418;7.286;2023-03-08T01:33:20;18.83;;;12.07;;
52854;SDS011;38719;51.418;7.286;2023-03-08T01:35:50;19.35;;;11.77;;
52854;SDS011;38719;51.418;7.286;2023-03-08T01:38:17;23.30;;;12.20;;
52854;SDS011;38719;51.418;7.286;2023-03-08T01:40:45;23.83;;;12.35;;
52854;SDS011;38719;51.418;7.286;2023-03-08T01:43:20;20.40;;;11.95;;
52854;SDS011;38719;51.418;7.286;2023-03-08T01:48:44;21.73;;;11.80;;
52854;SDS011;38719;51.418;7.286;2023-03-08T01:51:15;19.40;;;11.75;;
52854;SDS011;38719;51.418;7.286;2023-03-08T01:53:48;21.70;;;11.90;;
52854;SDS011;38719;51.418;7.286;2023-03-08T01:56:16;22.52;;;11.73;;
52854;SDS011;38719;51.418;7.286;2023-03-08T01:58:45;24.38;;;12.68;;
52854;SDS011;38719;51.418;7.286;2023-03-08T02:01:18;17.42;;;11.10;;
52854;SDS011;38719;51.418;7.286;2023-03-08T02:03:46;19.83;;;11.55;;
52854;SDS011;38719;51.418;7.286;2023-03-08T02:06:14;23.20;;;11.60;;
52854;SDS011;38719;51.418;7.286;2023-03-08T02:08:43;19.85;;;11.48;;
52854;SDS011;38719;51.418;7.286;2023-03-08T02:11:10;20.27;;;11.68;;
52854;SDS011;38719;51.418;7.286;2023-03-08T02:13:40;20.20;;;11.82;;
52854;SDS011;38719;51.418;7.286;2023-03-08T02:16:09;21.98;;;12.20;;
52854;SDS011;38719;51.418;7.286;2023-03-08T02:18:51;20.33;;;11.73;;
52854;SDS011;38719;51.418;7.286;2023-03-08T02:21:21;20.25;;;11.65;;
52854;SDS011;38719;51.418;7.286;2023-03-08T02:23:50;21.20;;;11.13;;
52854;SDS011;38719;51.418;7.286;2023-03-08T02:26:17;21.63;;;11.45;;
52854;SDS011;38719;51.418;7.286;2023-03-08T02:28:45;19.73;;;12.27;;
52854;SDS011;38719;51.418;7.286;2023-03-08T02:31:13;17.85;;;11.25;;
52854;SDS011;38719;51.418;7.286;2023-03-08T02:33:41;20.40;;;11.52;;
52854;SDS011;38719;51.418;7.286;2023-03-08T02:36:09;22.95;;;12.23;;
52854;SDS011;38719;51.418;7.286;2023-03-08T02:38:36;21.00;;;11.25;;
52854;SDS011;38719;51.418;7.286;2023-03-08T02:41:06;18.85;;;10.60;;
52854;SDS011;38719;51.418;7.286;2023-03-08T02:43:33;18.67;;;11.50;;
52854;SDS011;38719;51.418;7.286;2023-03-08T02:46:01;18.52;;;11.23;;
52854;SDS011;38719;51.418;7.286;2023-03-08T02:48:29;19.33;;;10.95;;
52854;SDS011;38719;51.418;7.286;2023-03-08T02:50:57;25.92;;;11.68;;
52854;SDS011;38719;51.418;7.286;2023-03-08T02:53:24;15.32;;;10.13;;
52854;SDS011;38719;51.418;7.286;2023-03-08T02:55:51;17.63;;;10.73;;
52854;SDS011;38719;51.418;7.286;2023-03-08T02:58:20;21.67;;;12.05;;
52854;SDS011;38719;51.418;7.286;2023-03-08T03:00:48;18.42;;;10.65;;
52854;SDS011;38719;51.418;7.286;2023-03-08T03:03:16;17.85;;;10.80;;
52854;SDS011;38719;51.418;7.286;2023-03-08T03:05:43;18.10;;;10.55;;
52854;SDS011;38719;51.418;7.286;2023-03-08T03:08:11;16.45;;;10.93;;
52854;SDS011;38719;51.418;7.286;2023-03-08T03:10:39;20.60;;;11.55;;
52854;SDS011;38719;51.418;7.286;2023-03-08T03:13:07;25.90;;;11.95;;
52854;SDS011;38719;51.418;7.286;2023-03-08T03:15:37;28.98;;;13.20;;
52854;SDS011;38719;51.418;7.286;2023-03-08T03:18:05;22.45;;;11.85;;
52854;SDS011;38719;51.418;7.286;2023-03-08T03:20:33;19.80;;;11.30;;
52854;SDS011;38719;51.418;7.286;2023-03-08T03:23:00;20.77;;;11.68;;
52854;SDS011;38719;51.418;7.286;2023-03-08T03:25:28;18.05;;;10.43;;
52854;SDS011;38719;51.418;7.286;2023-03-08T03:27:55;18.65;;;11.23;;
52854;SDS011;38719;51.418;7.286;2023-03-08T03:30:23;20.33;;;11.55;;
52854;SDS011;38719;51.418;7.286;2023-03-08T03:32:51;21.00;;;10.80;;
52854;SDS011;38719;51.418;7.286;2023-03-08T03:35:19;21.25;;;11.95;;
52854;SDS011;38719;51.418;7.286;2023-03-08T03:37:46;22.02;;;11.50;;
52854;SDS011;38719;51.418;7.286;2023-03-08T03:40:14;21.60;;;11.55;;
52854;SDS011;38719;51.418;7.286;2023-03-08T03:42:42;19.73;;;10.63;;
52854;SDS011;38719;51.418;7.286;2023-03-08T03:45:10;23.05;;;11.60;;
52854;SDS011;38719;51.418;7.286;2023-03-08T03:47:37;18.63;;;10.77;;
52854;SDS011;38719;51.418;7.286;2023-03-08T03:50:06;25.27;;;12.25;;
52854;SDS011;38719;51.418;7.286;2023-03-08T03:52:35;20.20;;;11.02;;
52854;SDS011;38719;51.418;7.286;2023-03-08T03:55:02;18.92;;;10.63;;
52854;SDS011;38719;51.418;7.286;2023-03-08T03:57:30;22.38;;;10.98;;
52854;SDS011;38719;51.418;7.286;2023-03-08T03:59:58;22.92;;;11.70;;
52854;SDS011;38719;51.418;7.286;2023-03-08T04:02:26;17.15;;;10.63;;
52854;SDS011;38719;51.418;7.286;2023-03-08T04:04:54;21.58;;;10.65;;
52854;SDS011;38719;51.418;7.286;2023-03-08T04:07:23;18.20;;;11.13;;
52854;SDS011;38719;51.418;7.286;2023-03-08T04:09:50;20.77;;;12.05;;
52854;SDS011;38719;51.418;7.286;2023-03-08T04:12:18;20.77;;;10.77;;
52854;SDS011;38719;51.418;7.286;2023-03-08T04:14:45;22.88;;;11.68;;
52854;SDS011;38719;51.418;7.286;2023-03-08T04:17:13;18.35;;;10.38;;
52854;SDS011;38719;51.418;7.286;2023-03-08T04:19:40;18.48;;;10.80;;
52854;SDS011;38719;51.418;7.286;2023-03-08T04:22:08;21.73;;;11.25;;
52854;SDS011;38719;51.418;7.286;2023-03-08T04:24:37;19.77;;;11.10;;
52854;SDS011;38719;51.418;7.286;2023-03-08T04:27:04;20.52;;;11.07;;
52854;SDS011;38719;51.418;7.286;2023-03-08T04:29:35;21.15;;;11.48;;
52854;SDS011;38719;51.418;7.286;2023-03-08T04:32:02;21.83;;;11.43;;
52854;SDS011;38719;51.418;7.286;2023-03-08T04:34:30;23.75;;;12.18;;
52854;SDS011;38719;51.418;7.286;2023-03-08T04:36:58;21.92;;;11.63;;
52854;SDS011;38719;51.418;7.286;2023-03-08T04:39:25;20.02;;;11.50;;
52854;SDS011;38719;51.418;7.286;2023-03-08T04:41:54;20.45;;;11.10;;
52854;SDS011;38719;51.418;7.286;2023-03-08T04:44:22;22.83;;;11.38;;
52854;SDS011;38719;51.418;7.286;2023-03-08T04:46:49;20.17;;;10.75;;
52854;SDS011;38719;51.418;7.286;2023-03-08T04:49:17;20.25;;;11.13;;
52854;SDS011;38719;51.418;7.286;2023-03-08T04:51:44;17.98;;;10.80;;
52854;SDS011;38719;51.418;7.286;2023-03-08T04:54:12;21.65;;;11.52;;
52854;SDS011;38719;51.418;7.286;2023-03-08T04:56:40;20.58;;;11.57;;
52854;SDS011;38719;51.418;7.286;2023-03-08T04:59:09;22.58;;;10.45;;
52854;SDS011;38719;51.418;7.286;2023-03-08T05:01:36;20.67;;;12.35;;
52854;SDS011;38719;51.418;7.286;2023-03-08T05:04:04;18.75;;;10.80;;
52854;SDS011;38719;51.418;7.286;2023-03-08T05:06:31;17.92;;;10.65;;
52854;SDS011;38719;51.418;7.286;2023-03-08T05:08:59;16.85;;;10.48;;
52854;SDS011;38719;51.418;7.286;2023-03-08T05:11:27;17.50;;;10.15;;
52854;SDS011;38719;51.418;7.286;2023-03-08T05:13:56;19.73;;;10.45;;
52854;SDS011;38719;51.418;7.286;2023-03-08T05:16:26;21.83;;;11.77;;
52854;SDS011;38719;51.418;7.286;2023-03-08T05:18:54;19.70;;;11.13;;
52854;SDS011;38719;51.418;7.286;2023-03-08T05:21:21;21.13;;;11.55;;
52854;SDS011;38719;51.418;7.286;2023-03-08T05:23:49;19.48;;;10.77;;
52854;SDS011;38719;51.418;7.286;2023-03-08T05:26:17;19.42;;;10.52;;
52854;SDS011;38719;51.418;7.286;2023-03-08T05:28:45;21.45;;;10.80;;
52854;SDS011;38719;51.418;7.286;2023-03-08T05:31:13;22.85;;;11.48;;
52854;SDS011;38719;51.418;7.286;2023-03-08T05:33:44;24.02;;;11.63;;
52854;SDS011;38719;51.418;7.286;2023-03-08T05:36:15;20.35;;;10.30;;
52854;SDS011;38719;51.418;7.286;2023-03-08T05:38:44;21.23;;;10.45;;
52854;SDS011;38719;51.418;7.286;2023-03-08T05:41:12;18.90;;;10.68;;
52854;SDS011;38719;51.418;7.286;2023-03-08T05:43:41;17.08;;;10.32;;
52854;SDS011;38719;51.418;7.286;2023-03-08T05:46:10;21.88;;;10.93;;
52854;SDS011;38719;51.418;7.286;2023-03-08T05:48:39;18.85;;;10.30;;
52854;SDS011;38719;51.418;7.286;2023-03-08T05:51:09;20.63;;;9.60;;
52854;SDS011;38719;51.418;7.286;2023-03-08T05:53:38;14.88;;;9.00;;
52854;SDS011;38719;51.418;7.286;2023-03-08T05:56:06;14.00;;;7.30;;
52854;SDS011;38719;51.418;7.286;2023-03-08T05:58:35;12.00;;;7.30;;
52854;SDS011;38719;51.418;7.286;2023-03-08T06:01:12;9.95;;;6.30;;
52854;SDS011;38719;51.418;7.286;2023-03-08T06:03:42;11.77;;;6.30;;
52854;SDS011;38719;51.418;7.286;2023-03-08T06:06:11;9.65;;;5.80;;
52854;SDS011;38719;51.418;7.286;2023-03-08T06:08:39;11.93;;;6.13;;
52854;SDS011;38719;51.418;7.286;2023-03-08T06:11:07;9.85;;;5.90;;
52854;SDS011;38719;51.418;7.286;2023-03-08T06:13:36;10.65;;;5.88;;
52854;SDS011;38719;51.418;7.286;2023-03-08T06:16:04;10.73;;;5.78;;
52854;SDS011;38719;51.418;7.286;2023-03-08T06:18:32;8.63;;;5.20;;
52854;SDS011;38719;51.418;7.286;2023-03-08T06:21:02;7.90;;;4.68;;
52854;SDS011;38719;51.418;7.286;2023-03-08T06:23:33;9.13;;;4.90;;
52854;SDS011;38719;51.418;7.286;2023-03-08T06:26:01;7.65;;;4.65;;
52854;SDS011;38719;51.418;7.286;2023-03-08T06:28:30;6.47;;;4.57;;
52854;SDS011;38719;51.418;7.286;2023-03-08T06:30:58;7.65;;;4.53;;
52854;SDS011;38719;51.418;7.286;2023-03-08T06:33:28;10.02;;;4.88;;
52854;SDS011;38719;51.418;7.286;2023-03-08T06:35:57;7.00;;;4.75;;
52854;SDS011;38719;51.418;7.286;2023-03-08T06:38:27;7.97;;;4.75;;
52854;SDS011;38719;51.418;7.286;2023-03-08T06:40:59;10.63;;;5.65;;
52854;SDS011;38719;51.418;7.286;2023-03-08T06:43:28;8.85;;;5.13;;
52854;SDS011;38719;51.418;7.286;2023-03-08T06:45:55;7.20;;;4.80;;
52854;SDS011;38719;51.418;7.286;2023-03-08T06:48:23;6.00;;;4.22;;
52854;SDS011;38719;51.418;7.286;2023-03-08T06:50:51;9.45;;;4.72;;
52854;SDS011;38719;51.418;7.286;2023-03-08T06:53:18;6.95;;;4.30;;
52854;SDS011;38719;51.418;7.286;2023-03-08T06:55:46;6.57;;;4.50;;
52854;SDS011;38719;51.418;7.286;2023-03-08T06:58:15;8.80;;;4.63;;
52854;SDS011;38719;51.418;7.286;2023-03-08T07:00:43;5.90;;;4.65;;
52854;SDS011;38719;51.418;7.286;2023-03-08T07:03:10;4.78;;;3.58;;
52854;SDS011;38719;51.418;7.286;2023-03-08T07:05:38;8.48;;;4.00;;
52854;SDS011;38719;51.418;7.286;2023-03-08T07:08:06;6.93;;;4.38;;
52854;SDS011;38719;51.418;7.286;2023-03-08T07:10:34;6.65;;;4.07;;
52854;SDS011;38719;51.418;7.286;2023-03-08T07:13:01;4.82;;;4.03;;
52854;SDS011;38719;51.418;7.286;2023-03-08T07:15:31;6.07;;;4.22;;
52854;SDS011;38719;51.418;7.286;2023-03-08T07:17:58;7.55;;;3.75;;
52854;SDS011;38719;51.418;7.286;2023-03-08T07:20:26;5.38;;;3.65;;
52854;SDS011;38719;51.418;7.286;2023-03-08T07:22:54;4.90;;;3.22;;
52854;SDS011;38719;51.418;7.286;2023-03-08T07:25:22;4.55;;;3.65;;
52854;SDS011;38719;51.418;7.286;2023-03-08T07:27:49;3.60;;;2.85;;
52854;SDS011;38719;51.418;7.286;2023-03-08T07:30:17;3.72;;;2.90;;
52854;SDS011;38719;51.418;7.286;2023-03-08T07:32:46;6.47;;;3.35;;
52854;SDS011;38719;51.418;7.286;2023-03-08T07:35:14;3.83;;;3.10;;
52854;SDS011;38719;51.418;7.286;2023-03-08T07:37:43;4.90;;;2.80;;
52854;SDS011;38719;51.418;7.286;2023-03-08T07:40:12;4.95;;;2.85;;
52854;SDS011;38719;51.418;7.286;2023-03-08T07:42:41;3.10;;;2.80;;
52854;SDS011;38719;51.418;7.286;2023-03-08T07:45:09;2.65;;;2.45;;
52854;SDS011;38719;51.418;7.286;2023-03-08T07:47:38;3.33;;;2.80;;
52854;SDS011;38719;51.418;7.286;2023-03-08T07:50:08;3.17;;;2.78;;
52854;SDS011;38719;51.418;7.286;2023-03-08T07:52:37;3.00;;;2.70;;
52854;SDS011;38719;51.418;7.286;2023-03-08T07:55:05;3.65;;;2.80;;
52854;SDS011;38719;51.418;7.286;2023-03-08T07:57:33;2.92;;;2.70;;
52854;SDS011;38719;51.418;7.286;2023-03-08T08:00:01;3.28;;;2.95;;
52854;SDS011;38719;51.418;7.286;2023-03-08T08:02:35;3.38;;;2.88;;
52854;SDS011;38719;51.418;7.286;2023-03-08T08:05:03;4.15;;;3.00;;
52854;SDS011;38719;51.418;7.286;2023-03-08T08:07:33;4.63;;;2.92;;
52854;SDS011;38719;51.418;7.286;2023-03-08T08:10:00;4.05;;;2.83;;
52854;SDS011;38719;51.418;7.286;2023-03-08T08:12:28;3.00;;;2.70;;
52854;SDS011;38719;51.418;7.286;2023-03-08T08:14:56;3.15;;;2.70;;
52854;SDS011;38719;51.418;7.286;2023-03-08T08:17:24;3.03;;;2.72;;
52854;SDS011;38719;51.418;7.286;2023-03-08T08:19:52;2.60;;;2.40;;
52854;SDS011;38719;51.418;7.286;2023-03-08T08:22:20;2.83;;;2.53;;
52854;SDS011;38719;51.418;7.286;2023-03-08T08:24:48;2.78;;;2.58;;
52854;SDS011;38719;51.418;7.286;2023-03-08T08:27:16;3.33;;;2.50;;
52854;SDS011;38719;51.418;7.286;2023-03-08T08:29:44;3.15;;;2.47;;
52854;SDS011;38719;51.418;7.286;2023-03-08T08:32:14;3.05;;;2.55;;
52854;SDS011;38719;51.418;7.286;2023-03-08T08:34:42;3.17;;;2.75;;
52854;SDS011;38719;51.418;7.286;2023-03-08T08:37:09;2.92;;;2.50;;
52854;SDS011;38719;51.418;7.286;2023-03-08T08:39:37;2.92;;;2.58;;
52854;SDS011;38719;51.418;7.286;2023-03-08T08:42:06;2.67;;;2.40;;
52854;SDS011;38719;51.418;7.286;2023-03-08T08:44:34;2.80;;;2.60;;
52854;SDS011;38719;51.418;7.286;2023-03-08T08:47:01;3.60;;;2.60;;
52854;SDS011;38719;51.418;7.286;2023-03-08T08:49:29;2.75;;;2.55;;
52854;SDS011;38719;51.418;7.286;2023-03-08T08:51:57;2.80;;;2.60;;
52854;SDS011;38719;51.418;7.286;2023-03-08T08:54:24;3.22;;;2.90;;
52854;SDS011;38719;51.418;7.286;2023-03-08T08:56:52;2.92;;;2.70;;
52854;SDS011;38719;51.418;7.286;2023-03-08T08:59:21;2.75;;;2.55;;
52854;SDS011;38719;51.418;7.286;2023-03-08T09:01:48;3.55;;;2.78;;
52854;SDS011;38719;51.418;7.286;2023-03-08T09:04:16;3.63;;;3.00;;
52854;SDS011;38719;51.418;7.286;2023-03-08T09:06:45;3.28;;;2.80;;
52854;SDS011;38719;51.418;7.286;2023-03-08T09:09:13;3.40;;;2.72;;
52854;SDS011;38719;51.418;7.286;2023-03-08T09:11:41;3.20;;;2.90;;
52854;SDS011;38719;51.418;7.286;2023-03-08T09:14:21;4.03;;;3.08;;
52854;SDS011;38719;51.418;7.286;2023-03-08T09:16:48;3.45;;;3.15;;
52854;SDS011;38719;51.418;7.286;2023-03-08T09:19:17;3.55;;;3.25;;
52854;SDS011;38719;51.418;7.286;2023-03-08T09:21:45;4.28;;;3.47;;
52854;SDS011;38719;51.418;7.286;2023-03-08T09:24:12;4.53;;;3.42;;
52854;SDS011;38719;51.418;7.286;2023-03-08T09:26:40;4.68;;;3.38;;
52854;SDS011;38719;51.418;7.286;2023-03-08T09:29:08;4.28;;;3.60;;
52854;SDS011;38719;51.418;7.286;2023-03-08T09:31:39;4.85;;;3.55;;
52854;SDS011;38719;51.418;7.286;2023-03-08T09:34:09;4.05;;;3.50;;
52854;SDS011;38719;51.418;7.286;2023-03-08T09:36:40;4.13;;;3.33;;
52854;SDS011;38719;51.418;7.286;2023-03-08T09:39:08;3.20;;;2.90;;
52854;SDS011;38719;51.418;7.286;2023-03-08T09:41:40;3.83;;;3.42;;
52854;SDS011;38719;51.418;7.286;2023-03-08T09:47:00;2.92;;;2.72;;
52854;SDS011;38719;51.418;7.286;2023-03-08T09:49:32;4.25;;;3.20;;
52854;SDS011;38719;51.418;7.286;2023-03-08T09:52:03;8.10;;;4.53;;
52854;SDS011;38719;51.418;7.286;2023-03-08T09:54:37;7.63;;;4.38;;
52854;SDS011;38719;51.418;7.286;2023-03-08T09:57:05;13.20;;;7.18;;
52854;SDS011;38719;51.418;7.286;2023-03-08T09:59:43;10.65;;;5.40;;
52854;SDS011;38719;51.418;7.286;2023-03-08T10:02:19;8.93;;;5.90;;
52854;SDS011;38719;51.418;7.286;2023-03-08T10:04:55;4.43;;;3.67;;
52854;SDS011;38719;51.418;7.286;2023-03-08T10:07:43;6.97;;;4.60;;
52854;SDS011;38719;51.418;7.286;2023-03-08T10:10:23;10.43;;;6.07;;
52854;SDS011;38719;51.418;7.286;2023-03-08T10:13:03;11.93;;;4.82;;
52854;SDS011;38719;51.418;7.286;2023-03-08T10:15:46;5.30;;;3.65;;
52854;SDS011;38719;51.418;7.286;2023-03-08T10:18:20;3.63;;;3.33;;
52854;SDS011;38719;51.418;7.286;2023-03-08T10:20:56;3.72;;;3.33;;
52854;SDS011;38719;51.418;7.286;2023-03-08T10:23:27;4.93;;;3.33;;
52854;SDS011;38719;51.418;7.286;2023-03-08T10:25:57;4.80;;;3.67;;
52854;SDS011;38719;51.418;7.286;2023-03-08T10:28:27;4.00;;;3.60;;
52854;SDS011;38719;51.418;7.286;2023-03-08T10:30:55;4.43;;;3.63;;
52854;SDS011;38719;51.418;7.286;2023-03-08T10:33:28;3.38;;;3.05;;
52854;SDS011;38719;51.418;7.286;2023-03-08T10:35:59;3.72;;;3.17;;
52854;SDS011;38719;51.418;7.286;2023-03-08T10:38:29;6.15;;;3.30;;
52854;SDS011;38719;51.418;7.286;2023-03-08T10:40:58;4.40;;;3.58;;
52854;SDS011;38719;51.418;7.286;2023-03-08T10:43:28;3.55;;;3.25;;
52854;SDS011;38719;51.418;7.286;2023-03-08T10:45:59;4.00;;;3.22;;
52854;SDS011;38719;51.418;7.286;2023-03-08T10:48:29;3.60;;;3.28;;
52854;SDS011;38719;51.418;7.286;2023-03-08T10:50:58;3.63;;;3.17;;
52854;SDS011;38719;51.418;7.286;2023-03-08T10:53:26;4.47;;;3.42;;
52854;SDS011;38719;51.418;7.286;2023-03-08T10:55:55;3.35;;;3.00;;
52854;SDS011;38719;51.418;7.286;2023-03-08T10:58:29;5.13;;;3.15;;
52854;SDS011;38719;51.418;7.286;2023-03-08T11:01:00;3.85;;;2.92;;
52854;SDS011;38719;51.418;7.286;2023-03-08T11:03:31;3.38;;;3.08;;
52854;SDS011;38719;51.418;7.286;2023-03-08T11:06:00;3.53;;;3.22;;
52854;SDS011;38719;51.418;7.286;2023-03-08T11:08:29;3.30;;;2.95;;
52854;SDS011;38719;51.418;7.286;2023-03-08T11:10:59;3.72;;;3.42;;
52854;SDS011;38719;51.418;7.286;2023-03-08T11:13:32;4.60;;;3.45;;
52854;SDS011;38719;51.418;7.286;2023-03-08T11:16:04;4.82;;;4.00;;
52854;SDS011;38719;51.418;7.286;2023-03-08T11:18:44;5.20;;;4.35;;
52854;SDS011;38719;51.418;7.286;2023-03-08T11:21:19;4.55;;;4.13;;
52854;SDS011;38719;51.418;7.286;2023-03-08T11:23:54;5.82;;;3.75;;
52854;SDS011;38719;51.418;7.286;2023-03-08T11:26:32;6.68;;;4.43;;
52854;SDS011;38719;51.418;7.286;2023-03-08T11:29:14;7.55;;;4.22;;
52854;SDS011;38719;51.418;7.286;2023-03-08T11:31:53;6.97;;;4.22;;
52854;SDS011;38719;51.418;7.286;2023-03-08T11:37:35;7.00;;;3.90;;
52854;SDS011;38719;51.418;7.286;2023-03-08T11:40:13;6.70;;;4.28;;
52854;SDS011;38719;51.418;7.286;2023-03-08T11:42:51;4.88;;;3.42;;
52854;SDS011;38719;51.418;7.286;2023-03-08T11:45:26;4.20;;;3.45;;
52854;SDS011;38719;51.418;7.286;2023-03-08T11:48:12;5.88;;;3.50;;
52854;SDS011;38719;51.418;7.286;2023-03-08T11:50:52;3.40;;;3.10;;
52854;SDS011;38719;51.418;7.286;2023-03-08T11:53:31;8.20;;;3.40;;
52854;SDS011;38719;51.418;7.286;2023-03-08T11:56:16;3.40;;;3.10;;
52854;SDS011;38719;51.418;7.286;2023-03-08T11:58:56;4.43;;;3.70;;
52854;SDS011;38719;51.418;7.286;2023-03-08T12:01:30;3.70;;;3.40;;
52854;SDS011;38719;51.418;7.286;2023-03-08T12:04:04;3.72;;;3.42;;
52854;SDS011;38719;51.418;7.286;2023-03-08T12:06:38;3.58;;;3.28;;
52854;SDS011;38719;51.418;7.286;2023-03-08T12:09:11;4.35;;;3.53;;
52854;SDS011;38719;51.418;7.286;2023-03-08T12:11:45;4.20;;;3.80;;
52854;SDS011;38719;51.418;7.286;2023-03-08T12:14:16;5.05;;;3.90;;
52854;SDS011;38719;51.418;7.286;2023-03-08T12:16:47;8.45;;;3.63;;
52854;SDS011;38719;51.418;7.286;2023-03-08T12:19:23;3.60;;;3.30;;
52854;SDS011;38719;51.418;7.286;2023-03-08T12:21:56;7.85;;;3.42;;
52854;SDS011;38719;51.418;7.286;2023-03-08T12:24:34;7.70;;;3.50;;
52854;SDS011;38719;51.418;7.286;2023-03-08T12:27:11;3.90;;;3.50;;
52854;SDS011;38719;51.418;7.286;2023-03-08T12:29:44;4.05;;;3.63;;
52854;SDS011;38719;51.418;7.286;2023-03-08T12:32:16;3.55;;;3.25;;
52854;SDS011;38719;51.418;7.286;2023-03-08T12:34:46;4.72;;;3.92;;
52854;SDS011;38719;51.418;7.286;2023-03-08T12:37:18;4.05;;;3.65;;
52854;SDS011;38719;51.418;7.286;2023-03-08T12:39:56;5.28;;;4.00;;
52854;SDS011;38719;51.418;7.286;2023-03-08T12:42:34;4.60;;;3.97;;
52854;SDS011;38719;51.418;7.286;2023-03-08T12:45:04;8.23;;;4.10;;
52854;SDS011;38719;51.418;7.286;2023-03-08T12:47:55;4.47;;;3.53;;
52854;SDS011;38719;51.418;7.286;2023-03-08T12:50:25;5.45;;;4.40;;
52854;SDS011;38719;51.418;7.286;2023-03-08T12:52:52;5.22;;;4.15;;
52854;SDS011;38719;51.418;7.286;2023-03-08T12:55:24;4.35;;;3.95;;
52854;SDS011;38719;51.418;7.286;2023-03-08T13:00:26;5.18;;;4.60;;
52854;SDS011;38719;51.418;7.286;2023-03-08T13:03:00;4.47;;;3.97;;
52854;SDS011;38719;51.418;7.286;2023-03-08T13:05:31;6.57;;;4.65;;
52854;SDS011;38719;51.418;7.286;2023-03-08T13:08:02;4.72;;;4.00;;
52854;SDS011;38719;51.418;7.286;2023-03-08T13:10:52;4.55;;;4.10;;
52854;SDS011;38719;51.418;7.286;2023-03-08T13:13:25;5.57;;;3.70;;
52854;SDS011;38719;51.418;7.286;2023-03-08T13:16:05;5.13;;;4.22;;
52854;SDS011;38719;51.418;7.286;2023-03-08T13:18:46;4.43;;;4.00;;
52854;SDS011;38719;51.418;7.286;2023-03-08T13:21:21;6.28;;;3.92;;
52854;SDS011;38719;51.418;7.286;2023-03-08T13:23:56;4.60;;;4.20;;
52854;SDS011;38719;51.418;7.286;2023-03-08T13:29:35;6.65;;;4.20;;
52854;SDS011;38719;51.418;7.286;2023-03-08T13:32:03;4.43;;;4.03;;
52854;SDS011;38719;51.418;7.286;2023-03-08T13:34:33;5.95;;;4.65;;
52854;SDS011;38719;51.418;7.286;2023-03-08T13:37:01;5.25;;;4.32;;
52854;SDS011;38719;51.418;7.286;2023-03-08T13:39:29;6.18;;;4.40;;
52854;SDS011;38719;51.418;7.286;2023-03-08T13:42:06;7.45;;;4.60;;
52854;SDS011;38719;51.418;7.286;2023-03-08T13:44:36;5.60;;;4.82;;
52854;SDS011;38719;51.418;7.286;2023-03-08T13:47:14;5.00;;;4.35;;
52854;SDS011;38719;51.418;7.286;2023-03-08T13:49:47;7.05;;;5.13;;
52854;SDS011;38719;51.418;7.286;2023-03-08T13:52:17;7.15;;;6.00;;
52854;SDS011;38719;51.418;7.286;2023-03-08T13:54:47;25.83;;;10.27;;
52854;SDS011;38719;51.418;7.286;2023-03-08T13:57:20;12.07;;;6.20;;
52854;SDS011;38719;51.418;7.286;2023-03-08T13:59:50;11.57;;;6.43;;
52854;SDS011;38719;51.418;7.286;2023-03-08T14:02:21;10.43;;;6.47;;
52854;SDS011;38719;51.418;7.286;2023-03-08T14:04:50;7.40;;;5.38;;
52854;SDS011;38719;51.418;7.286;2023-03-08T14:07:22;5.90;;;4.82;;
52854;SDS011;38719;51.418;7.286;2023-03-08T14:09:50;8.57;;;5.20;;
52854;SDS011;38719;51.418;7.286;2023-03-08T14:12:20;7.50;;;5.47;;
52854;SDS011;38719;51.418;7.286;2023-03-08T14:14:51;8.38;;;5.88;;
52854;SDS011;38719;51.418;7.286;2023-03-08T14:17:22;7.53;;;5.57;;
52854;SDS011;38719;51.418;7.286;2023-03-08T14:19:52;6.88;;;5.53;;
52854;SDS011;38719;51.418;7.286;2023-03-08T14:22:22;7.75;;;5.75;;
52854;SDS011;38719;51.418;7.286;2023-03-08T14:25:05;7.25;;;5.38;;
52854;SDS011;38719;51.418;7.286;2023-03-08T14:27:47;7.40;;;5.32;;
52854;SDS011;38719;51.418;7.286;2023-03-08T14:30:15;5.53;;;4.75;;
52854;SDS011;38719;51.418;7.286;2023-03-08T14:32:54;6.13;;;5.53;;
52854;SDS011;38719;51.418;7.286;2023-03-08T14:35:31;7.00;;;5.18;;
52854;SDS011;38719;51.418;7.286;2023-03-08T14:38:01;7.80;;;5.38;;
52854;SDS011;38719;51.418;7.286;2023-03-08T14:40:30;7.10;;;5.78;;
52854;SDS011;38719;51.418;7.286;2023-03-08T14:43:02;6.60;;;5.72;;
52854;SDS011;38719;51.418;7.286;2023-03-08T14:45:33;6.25;;;5.38;;
52854;SDS011;38719;51.418;7.286;2023-03-08T14:48:20;6.65;;;5.65;;
52854;SDS011;38719;51.418;7.286;2023-03-08T14:50:51;7.03;;;5.60;;
52854;SDS011;38719;51.418;7.286;2023-03-08T14:53:27;5.90;;;5.00;;
52854;SDS011;38719;51.418;7.286;2023-03-08T14:55:57;6.78;;;5.45;;
52854;SDS011;38719;51.418;7.286;2023-03-08T14:58:32;7.50;;;5.00;;
52854;SDS011;38719;51.418;7.286;2023-03-08T15:01:01;9.73;;;5.90;;
52854;SDS011;38719;51.418;7.286;2023-03-08T15:03:29;6.65;;;5.70;;
52854;SDS011;38719;51.418;7.286;2023-03-08T15:05:58;7.13;;;5.63;;
52854;SDS011;38719;51.418;7.286;2023-03-08T15:08:30;7.95;;;5.70;;